createdAt,value
2017-09-29T00:00:15.560Z,0
2017-09-29T00:01:17.227Z,0
2017-09-29T00:02:18.882Z,0
2017-09-29T00:03:20.558Z,0
2017-09-29T00:04:22.222Z,0
2017-09-29T00:05:23.870Z,0
2017-09-29T00:06:25.527Z,0
2017-09-29T00:07:27.191Z,0
2017-09-29T00:08:28.860Z,0
2017-09-29T00:09:30.524Z,0
2017-09-29T00:10:32.188Z,0
2017-09-29T00:11:33.849Z,0
2017-09-29T00:12:35.501Z,0
2017-09-29T00:13:37.156Z,0
2017-09-29T00:14:38.809Z,0
2017-09-29T00:15:40.495Z,0
2017-09-29T00:16:42.156Z,0
2017-09-29T00:17:43.823Z,0
2017-09-29T00:18:45.513Z,0
2017-09-29T00:19:47.164Z,0
2017-09-29T00:20:48.850Z,0
2017-09-29T00:21:50.505Z,0
2017-09-29T00:22:52.195Z,0
2017-09-29T00:23:53.845Z,0
2017-09-29T00:24:55.580Z,0
2017-09-29T00:25:57.241Z,0
2017-09-29T00:26:58.911Z,0
2017-09-29T00:28:00.553Z,0
2017-09-29T00:29:02.214Z,0
2017-09-29T00:30:03.889Z,0
2017-09-29T00:31:06.504Z,0
2017-09-29T00:32:08.162Z,0
2017-09-29T00:33:09.863Z,0
2017-09-29T00:34:11.533Z,0
2017-09-29T00:35:13.180Z,0
2017-09-29T00:36:14.844Z,0
2017-09-29T00:37:16.505Z,0
2017-09-29T00:38:18.155Z,0
2017-09-29T00:39:19.816Z,0
2017-09-29T00:40:21.475Z,0
2017-09-29T00:41:23.133Z,0
2017-09-29T00:42:24.792Z,0
2017-09-29T00:43:26.462Z,0
2017-09-29T00:44:28.137Z,0
2017-09-29T00:45:29.792Z,0
2017-09-29T00:46:31.465Z,0
2017-09-29T00:47:33.134Z,0
2017-09-29T00:48:34.800Z,0
2017-09-29T00:49:36.456Z,0
2017-09-29T00:50:38.734Z,0
2017-09-29T00:51:40.401Z,0
2017-09-29T00:52:42.060Z,0
2017-09-29T00:53:43.730Z,0
2017-09-29T00:54:45.389Z,0
2017-09-29T00:55:47.059Z,0
2017-09-29T00:56:48.709Z,0
2017-09-29T00:57:50.370Z,0
2017-09-29T00:58:52.042Z,0
2017-09-29T00:59:53.750Z,0
2017-09-29T01:00:55.430Z,0
2017-09-29T01:01:57.097Z,0
2017-09-29T01:02:58.757Z,0
2017-09-29T01:04:00.418Z,0
2017-09-29T01:05:02.079Z,0
2017-09-29T01:06:03.734Z,0
2017-09-29T01:07:05.402Z,0
2017-09-29T01:08:07.070Z,0
2017-09-29T01:09:08.744Z,0
2017-09-29T01:10:10.397Z,0
2017-09-29T01:11:12.053Z,0
2017-09-29T01:12:13.710Z,0
2017-09-29T01:13:15.368Z,0
2017-09-29T01:14:17.031Z,0
2017-09-29T01:15:18.680Z,0
2017-09-29T01:16:20.341Z,0
2017-09-29T01:17:21.995Z,0
2017-09-29T01:18:23.648Z,0
2017-09-29T01:19:25.305Z,0
2017-09-29T01:20:26.958Z,0
2017-09-29T01:21:28.618Z,0
2017-09-29T01:22:30.266Z,0
2017-09-29T01:23:31.931Z,0
2017-09-29T01:24:33.591Z,0
2017-09-29T01:25:35.239Z,0
2017-09-29T01:26:36.907Z,0
2017-09-29T01:27:38.566Z,0
2017-09-29T01:28:40.221Z,0
2017-09-29T01:29:41.880Z,0
2017-09-29T01:30:43.535Z,0
2017-09-29T01:31:45.200Z,0
2017-09-29T01:32:46.877Z,0
2017-09-29T01:33:48.552Z,0
2017-09-29T01:34:50.209Z,0
2017-09-29T01:35:51.862Z,0
2017-09-29T01:36:53.527Z,0
2017-09-29T01:37:55.999Z,0
2017-09-29T01:38:57.658Z,0
2017-09-29T01:39:59.314Z,0
2017-09-29T01:41:00.976Z,0
2017-09-29T01:42:02.622Z,0
2017-09-29T01:43:04.298Z,0
2017-09-29T01:44:05.957Z,0
2017-09-29T01:45:07.623Z,0
2017-09-29T01:46:09.273Z,0
2017-09-29T01:47:10.936Z,0
2017-09-29T01:48:12.613Z,0
2017-09-29T01:49:14.292Z,0
2017-09-29T01:50:15.945Z,0
2017-09-29T01:51:17.600Z,0
2017-09-29T01:52:19.258Z,0
2017-09-29T01:53:20.917Z,0
2017-09-29T01:54:22.572Z,0
2017-09-29T01:55:24.263Z,0
2017-09-29T02:01:41.088Z,0
2017-09-29T02:02:42.744Z,0
2017-09-29T02:03:44.394Z,0
2017-09-29T02:04:46.039Z,0
2017-09-29T02:05:47.694Z,0
2017-09-29T02:06:49.348Z,0
2017-09-29T02:07:51.013Z,0
2017-09-29T02:08:52.680Z,0
2017-09-29T02:09:54.341Z,0
2017-09-29T02:10:55.995Z,0
2017-09-29T02:11:57.648Z,0
2017-09-29T02:12:59.349Z,0
2017-09-29T02:14:01.007Z,0
2017-09-29T02:15:02.660Z,0
2017-09-29T02:16:04.318Z,0
2017-09-29T02:17:05.973Z,0
2017-09-29T02:18:07.650Z,0
2017-09-29T02:19:09.308Z,0
2017-09-29T02:20:10.961Z,0
2017-09-29T02:21:12.641Z,0
2017-09-29T02:22:14.308Z,0
2017-09-29T02:23:15.966Z,0
2017-09-29T02:24:17.626Z,0
2017-09-29T02:25:19.285Z,0
2017-09-29T02:26:20.946Z,0
2017-09-29T02:27:22.612Z,0
2017-09-29T02:28:24.268Z,0
2017-09-29T02:29:25.948Z,0
2017-09-29T02:30:27.605Z,0
2017-09-29T02:31:29.268Z,0
2017-09-29T02:32:30.928Z,0
2017-09-29T02:33:32.581Z,0
2017-09-29T02:34:34.236Z,0
2017-09-29T02:35:35.897Z,0
2017-09-29T02:36:37.561Z,0
2017-09-29T02:37:39.211Z,0
2017-09-29T02:38:40.906Z,0
2017-09-29T02:39:42.522Z,0
2017-09-29T02:40:44.173Z,0
2017-09-29T02:41:45.834Z,0
2017-09-29T02:42:47.487Z,0
2017-09-29T02:43:49.142Z,0
2017-09-29T02:44:50.811Z,0
2017-09-29T02:45:52.462Z,0
2017-09-29T02:46:54.123Z,0
2017-09-29T02:47:55.771Z,0
2017-09-29T02:48:57.434Z,0
2017-09-29T02:49:59.101Z,0
2017-09-29T02:51:00.749Z,0
2017-09-29T02:52:02.412Z,0
2017-09-29T02:53:04.066Z,0
2017-09-29T02:54:05.808Z,0
2017-09-29T02:55:07.476Z,0
2017-09-29T02:56:09.139Z,0
2017-09-29T02:57:10.802Z,0
2017-09-29T02:58:12.507Z,0
2017-09-29T02:59:14.158Z,0
2017-09-29T03:00:15.817Z,0
2017-09-29T03:01:17.498Z,0
2017-09-29T03:02:19.160Z,0
2017-09-29T03:03:20.810Z,0
2017-09-29T03:04:22.460Z,0
2017-09-29T03:05:24.107Z,0
2017-09-29T03:06:25.778Z,0
2017-09-29T03:07:27.429Z,0
2017-09-29T03:08:29.097Z,0
2017-09-29T03:09:30.751Z,0
2017-09-29T03:10:32.413Z,0
2017-09-29T03:11:34.076Z,0
2017-09-29T03:12:35.740Z,0
2017-09-29T03:13:37.399Z,0
2017-09-29T03:14:39.052Z,0
2017-09-29T03:15:40.702Z,0
2017-09-29T03:16:42.363Z,0
2017-09-29T03:17:44.027Z,0
2017-09-29T03:18:45.707Z,0
2017-09-29T03:19:47.368Z,0
2017-09-29T03:20:49.026Z,0
2017-09-29T03:21:50.675Z,0
2017-09-29T03:22:52.348Z,0
2017-09-29T03:23:53.986Z,0
2017-09-29T03:24:55.654Z,0
2017-09-29T03:25:57.309Z,0
2017-09-29T03:26:58.958Z,0
2017-09-29T03:28:00.617Z,0
2017-09-29T03:29:02.267Z,0
2017-09-29T03:30:03.923Z,0
2017-09-29T03:31:05.578Z,0
2017-09-29T03:32:07.235Z,0
2017-09-29T03:33:08.886Z,0
2017-09-29T03:34:10.540Z,0
2017-09-29T03:35:12.231Z,0
2017-09-29T03:36:13.892Z,0
2017-09-29T03:37:15.556Z,0
2017-09-29T03:38:17.218Z,0
2017-09-29T03:39:18.889Z,0
2017-09-29T03:40:20.538Z,0
2017-09-29T03:41:22.190Z,0
2017-09-29T03:42:23.846Z,0
2017-09-29T03:43:25.507Z,0
2017-09-29T03:44:27.158Z,0
2017-09-29T03:45:28.822Z,0
2017-09-29T03:46:30.480Z,0
2017-09-29T03:47:32.141Z,0
2017-09-29T03:48:33.811Z,0
2017-09-29T03:49:35.471Z,0
2017-09-29T03:50:37.123Z,0
2017-09-29T03:51:38.783Z,0
2017-09-29T03:52:40.436Z,0
2017-09-29T03:53:42.123Z,0
2017-09-29T03:54:43.849Z,0
2017-09-29T03:55:45.609Z,0
2017-09-29T03:56:47.332Z,0
2017-09-29T03:57:49.034Z,0
2017-09-29T03:58:50.736Z,0
2017-09-29T03:59:52.448Z,0
2017-09-29T04:00:54.180Z,0
2017-09-29T04:01:55.919Z,0
2017-09-29T04:02:57.794Z,0
2017-09-29T04:03:59.726Z,0
2017-09-29T04:05:01.761Z,0
2017-09-29T04:06:03.702Z,0
2017-09-29T04:07:05.741Z,0
2017-09-29T04:08:07.714Z,0
2017-09-29T04:09:09.588Z,0
2017-09-29T04:10:11.554Z,0
2017-09-29T04:11:13.652Z,0
2017-09-29T04:12:15.588Z,0
2017-09-29T04:13:17.496Z,0
2017-09-29T04:14:19.418Z,0
2017-09-29T04:15:21.384Z,0
2017-09-29T04:16:23.267Z,0
2017-09-29T04:17:25.280Z,0
2017-09-29T04:18:27.073Z,0
2017-09-29T04:19:29.112Z,0
2017-09-29T04:20:31.061Z,0
2017-09-29T04:21:32.810Z,0
2017-09-29T04:22:34.538Z,0
2017-09-29T04:23:36.336Z,0
2017-09-29T04:24:38.173Z,0
2017-09-29T04:25:40.052Z,0
2017-09-29T04:26:41.924Z,0
2017-09-29T04:27:43.753Z,0
2017-09-29T04:28:45.589Z,0
2017-09-29T04:29:47.450Z,0
2017-09-29T04:30:49.282Z,0
2017-09-29T04:31:52.123Z,0
2017-09-29T04:32:54.068Z,0
2017-09-29T04:33:55.861Z,0
2017-09-29T04:34:57.823Z,0
2017-09-29T04:35:59.786Z,0
2017-09-29T04:37:01.761Z,0
2017-09-29T04:38:03.725Z,0
2017-09-29T04:39:05.774Z,0
2017-09-29T04:40:07.813Z,0
2017-09-29T04:41:11.713Z,0
2017-09-29T04:42:13.565Z,0
2017-09-29T04:43:15.547Z,0
2017-09-29T04:44:17.547Z,0
2017-09-29T04:45:19.466Z,0
2017-09-29T04:46:21.428Z,0
2017-09-29T04:47:24.080Z,0
2017-09-29T04:48:26.820Z,0
2017-09-29T04:49:28.747Z,0
2017-09-29T04:50:30.704Z,0
2017-09-29T04:51:32.597Z,0
2017-09-29T04:52:34.452Z,0
2017-09-29T04:53:36.355Z,4
2017-09-29T04:54:38.252Z,4
2017-09-29T04:55:39.942Z,0
2017-09-29T04:56:41.637Z,4
2017-09-29T04:57:43.397Z,4
2017-09-29T04:58:45.083Z,8
2017-09-29T04:59:46.776Z,8
2017-09-29T05:00:48.452Z,8
2017-09-29T05:01:50.114Z,12
2017-09-29T05:02:51.872Z,12
2017-09-29T05:03:53.607Z,16
2017-09-29T05:04:55.347Z,20
2017-09-29T05:05:57.043Z,24
2017-09-29T05:06:58.757Z,28
2017-09-29T05:08:00.585Z,36
2017-09-29T05:09:02.301Z,44
2017-09-29T05:10:04.034Z,48
2017-09-29T05:11:05.775Z,60
2017-09-29T05:12:07.507Z,76
2017-09-29T05:13:11.343Z,88
2017-09-29T05:14:13.117Z,100
2017-09-29T05:15:14.852Z,116
2017-09-29T05:16:16.593Z,128
2017-09-29T05:17:18.359Z,152
2017-09-29T05:18:20.115Z,180
2017-09-29T05:19:21.998Z,216
2017-09-29T05:20:23.770Z,260
2017-09-29T05:21:25.500Z,320
2017-09-29T05:22:27.206Z,384
2017-09-29T05:23:29.001Z,444
2017-09-29T05:24:30.779Z,492
2017-09-29T05:25:32.538Z,540
2017-09-29T05:26:34.285Z,588
2017-09-29T05:27:36.059Z,632
2017-09-29T05:28:37.735Z,660
2017-09-29T05:29:39.438Z,696
2017-09-29T05:30:41.175Z,736
2017-09-29T05:31:42.896Z,800
2017-09-29T05:32:44.665Z,868
2017-09-29T05:33:46.373Z,944
2017-09-29T05:34:48.123Z,1016
2017-09-29T05:35:49.858Z,1060
2017-09-29T05:36:51.604Z,1108
2017-09-29T05:37:53.415Z,1160
2017-09-29T05:38:55.166Z,1228
2017-09-29T05:39:56.958Z,1296
2017-09-29T05:40:58.736Z,1348
2017-09-29T05:42:00.530Z,1328
2017-09-29T05:43:02.263Z,1276
2017-09-29T05:44:04.057Z,1220
2017-09-29T05:45:05.810Z,1224
2017-09-29T05:46:09.331Z,1356
2017-09-29T05:47:11.071Z,1580
2017-09-29T05:48:12.842Z,1800
2017-09-29T05:49:15.616Z,1968
2017-09-29T05:50:17.405Z,2052
2017-09-29T05:51:19.159Z,2064
2017-09-29T05:52:20.890Z,2024
2017-09-29T05:53:22.741Z,1960
2017-09-29T05:54:24.498Z,1924
2017-09-29T06:01:12.199Z,2276
2017-09-29T06:02:13.795Z,2256
2017-09-29T06:03:15.452Z,2212
2017-09-29T06:04:17.121Z,2172
2017-09-29T06:05:18.779Z,2144
2017-09-29T06:06:20.439Z,2128
2017-09-29T06:07:22.952Z,2116
2017-09-29T06:08:24.609Z,2092
2017-09-29T06:09:26.269Z,2060
2017-09-29T06:10:27.939Z,2036
2017-09-29T06:11:29.624Z,2032
2017-09-29T06:12:31.286Z,2036
2017-09-29T06:13:32.951Z,2020
2017-09-29T06:14:34.634Z,1984
2017-09-29T06:15:36.312Z,1944
2017-09-29T06:16:37.952Z,1928
2017-09-29T06:17:39.611Z,1932
2017-09-29T06:18:41.267Z,1948
2017-09-29T06:19:42.945Z,1996
2017-09-29T06:20:44.652Z,2096
2017-09-29T06:21:46.386Z,2240
2017-09-29T06:22:48.045Z,2420
2017-09-29T06:23:49.713Z,2584
2017-09-29T06:24:51.374Z,2748
2017-09-29T06:25:53.116Z,2764
2017-09-29T06:26:54.776Z,2728
2017-09-29T06:27:56.449Z,2700
2017-09-29T06:28:58.105Z,2628
2017-09-29T06:29:59.767Z,2524
2017-09-29T06:31:01.427Z,2408
2017-09-29T06:32:03.093Z,2272
2017-09-29T06:33:04.754Z,2128
2017-09-29T06:34:06.420Z,2076
2017-09-29T06:35:08.089Z,2012
2017-09-29T06:36:09.755Z,1912
2017-09-29T06:37:11.522Z,1860
2017-09-29T06:38:13.185Z,1868
2017-09-29T06:39:14.880Z,1892
2017-09-29T06:40:16.781Z,1832
2017-09-29T06:41:18.690Z,1684
2017-09-29T06:42:20.630Z,1728
2017-09-29T06:43:22.641Z,1888
2017-09-29T06:44:24.583Z,1904
2017-09-29T06:45:26.476Z,1924
2017-09-29T06:46:28.450Z,2000
2017-09-29T06:47:30.378Z,2040
2017-09-29T06:48:32.497Z,2100
2017-09-29T06:49:34.593Z,2156
2017-09-29T06:50:36.673Z,2276
2017-09-29T06:51:38.608Z,2384
2017-09-29T06:52:40.630Z,2456
2017-09-29T06:53:42.695Z,2572
2017-09-29T06:54:44.882Z,2796
2017-09-29T06:55:47.332Z,3084
2017-09-29T06:56:49.551Z,3436
2017-09-29T06:57:51.901Z,3824
2017-09-29T06:58:54.078Z,4156
2017-09-29T06:59:56.074Z,4524
2017-09-29T07:00:58.107Z,4928
2017-09-29T07:02:00.049Z,5436
2017-09-29T07:03:02.008Z,5920
2017-09-29T07:04:03.941Z,6160
2017-09-29T07:05:06.011Z,6356
2017-09-29T07:06:08.030Z,6272
2017-09-29T07:07:10.086Z,5904
2017-09-29T07:08:12.022Z,5588
2017-09-29T07:09:14.105Z,5252
2017-09-29T07:10:16.152Z,4800
2017-09-29T07:11:18.096Z,4508
2017-09-29T07:12:20.167Z,4352
2017-09-29T07:13:22.100Z,4340
2017-09-29T07:14:24.154Z,4540
2017-09-29T07:15:26.080Z,5064
2017-09-29T07:16:28.129Z,5672
2017-09-29T07:17:30.187Z,5932
2017-09-29T07:18:32.215Z,5680
2017-09-29T07:19:34.222Z,5524
2017-09-29T07:20:36.198Z,5556
2017-09-29T07:21:38.063Z,5456
2017-09-29T07:22:40.031Z,5212
2017-09-29T07:23:42.132Z,4852
2017-09-29T07:24:44.128Z,4740
2017-09-29T07:25:46.100Z,4928
2017-09-29T07:26:48.125Z,5188
2017-09-29T07:27:50.128Z,5408
2017-09-29T07:28:52.200Z,5832
2017-09-29T07:29:54.204Z,5964
2017-09-29T07:30:56.327Z,6284
2017-09-29T07:31:58.348Z,6900
2017-09-29T07:33:00.379Z,7204
2017-09-29T07:34:02.488Z,6972
2017-09-29T07:35:04.619Z,6732
2017-09-29T07:36:06.783Z,6560
2017-09-29T07:37:08.758Z,6200
2017-09-29T07:38:10.845Z,5768
2017-09-29T07:39:13.087Z,5568
2017-09-29T07:40:15.022Z,5520
2017-09-29T07:41:17.176Z,5872
2017-09-29T07:42:19.228Z,6388
2017-09-29T07:43:21.290Z,7076
2017-09-29T07:44:23.316Z,7652
2017-09-29T07:45:25.282Z,7704
2017-09-29T07:46:27.340Z,7300
2017-09-29T07:47:29.355Z,7016
2017-09-29T07:48:31.333Z,6852
2017-09-29T07:49:33.418Z,6784
2017-09-29T07:50:35.438Z,7540
2017-09-29T07:51:37.416Z,8616
2017-09-29T07:52:39.471Z,8920
2017-09-29T07:53:41.476Z,8380
2017-09-29T07:54:43.398Z,8828
2017-09-29T07:55:45.391Z,8716
2017-09-29T07:56:47.304Z,8368
2017-09-29T07:57:49.370Z,7988
2017-09-29T07:58:51.368Z,7604
2017-09-29T07:59:53.346Z,7300
2017-09-29T08:00:55.225Z,6972
2017-09-29T08:01:57.290Z,6652
2017-09-29T08:02:59.354Z,6692
2017-09-29T08:04:01.323Z,7436
2017-09-29T08:05:03.409Z,8312
2017-09-29T08:06:05.475Z,8912
2017-09-29T08:07:07.635Z,10320
2017-09-29T08:08:09.675Z,11468
2017-09-29T08:09:11.780Z,11948
2017-09-29T08:10:13.871Z,11788
2017-09-29T08:11:15.929Z,11264
2017-09-29T08:12:17.985Z,11232
2017-09-29T08:13:20.050Z,12008
2017-09-29T08:14:22.193Z,12612
2017-09-29T08:15:24.465Z,13204
2017-09-29T08:16:26.788Z,14420
2017-09-29T08:17:29.279Z,15536
2017-09-29T08:18:31.831Z,15792
2017-09-29T08:19:34.544Z,15248
2017-09-29T08:20:37.143Z,14864
2017-09-29T08:21:39.661Z,15068
2017-09-29T08:22:42.473Z,16716
2017-09-29T08:23:44.958Z,19008
2017-09-29T08:24:47.344Z,20160
2017-09-29T08:25:49.932Z,20416
2017-09-29T08:26:52.394Z,20000
2017-09-29T08:27:54.716Z,20384
2017-09-29T08:28:56.951Z,21216
2017-09-29T08:29:59.409Z,20640
2017-09-29T08:31:01.729Z,19040
2017-09-29T08:32:04.161Z,18656
2017-09-29T08:33:06.443Z,18656
2017-09-29T08:34:08.989Z,17024
2017-09-29T08:35:11.574Z,16724
2017-09-29T08:36:13.876Z,17072
2017-09-29T08:37:16.138Z,19264
2017-09-29T08:38:18.597Z,21824
2017-09-29T08:39:21.085Z,21280
2017-09-29T08:40:23.377Z,19296
2017-09-29T08:41:25.772Z,16344
2017-09-29T08:42:27.982Z,17368
2017-09-29T08:43:30.242Z,20064
2017-09-29T08:44:32.886Z,21152
2017-09-29T08:45:35.446Z,21056
2017-09-29T08:46:37.999Z,23232
2017-09-29T08:47:40.583Z,28960
2017-09-29T08:48:42.613Z,46816
2017-09-29T08:49:44.948Z,49568
2017-09-29T08:50:47.432Z,52320
2017-09-29T08:51:49.698Z,56928
2017-09-29T08:52:51.751Z,34720
2017-09-29T08:53:53.722Z,30464
2017-09-29T08:54:55.648Z,25600
2017-09-29T08:55:57.511Z,28864
2017-09-29T08:56:59.530Z,29312
2017-09-29T08:58:01.655Z,24032
2017-09-29T08:59:03.566Z,24288
2017-09-29T09:00:05.552Z,28384
2017-09-29T09:01:07.536Z,34944
2017-09-29T09:02:09.550Z,66016
2017-09-29T09:03:11.568Z,32512
2017-09-29T09:04:13.630Z,34784
2017-09-29T09:05:15.624Z,52768
2017-09-29T09:06:17.718Z,37472
2017-09-29T09:07:19.964Z,55200
2017-09-29T09:08:22.117Z,66432
2017-09-29T09:09:24.188Z,61568
2017-09-29T09:10:26.526Z,32896
2017-09-29T09:11:28.462Z,32992
2017-09-29T09:12:30.445Z,70464
2017-09-29T09:13:32.517Z,63520
2017-09-29T09:14:34.550Z,71232
2017-09-29T09:15:36.631Z,69216
2017-09-29T09:16:38.538Z,84576
2017-09-29T09:17:40.553Z,60992
2017-09-29T09:18:42.503Z,42272
2017-09-29T09:19:44.460Z,89888
2017-09-29T09:20:46.454Z,82656
2017-09-29T09:21:48.461Z,78592
2017-09-29T09:22:50.390Z,75712
2017-09-29T09:23:52.346Z,73984
2017-09-29T09:24:54.316Z,74336
2017-09-29T09:25:56.423Z,71296
2017-09-29T09:26:58.532Z,67712
2017-09-29T09:28:00.474Z,74112
2017-09-29T09:29:02.416Z,80704
2017-09-29T09:30:04.512Z,67424
2017-09-29T09:31:06.508Z,56512
2017-09-29T09:32:08.473Z,98624
2017-09-29T09:33:10.471Z,71392
2017-09-29T09:34:12.380Z,44480
2017-09-29T09:35:14.314Z,51680
2017-09-29T09:36:16.316Z,65216
2017-09-29T09:37:18.287Z,55136
2017-09-29T09:38:20.236Z,75936
2017-09-29T09:39:22.110Z,60224
2017-09-29T09:40:24.118Z,80160
2017-09-29T09:41:26.031Z,67328
2017-09-29T09:42:27.972Z,33952
2017-09-29T09:43:29.913Z,26880
2017-09-29T09:44:31.892Z,25792
2017-09-29T09:45:33.790Z,25024
2017-09-29T09:46:35.752Z,33216
2017-09-29T09:47:37.688Z,46752
2017-09-29T09:48:39.615Z,36928
2017-09-29T09:49:41.560Z,36416
2017-09-29T09:50:43.469Z,44480
2017-09-29T09:51:45.344Z,39520
2017-09-29T09:52:47.322Z,49632
2017-09-29T09:53:49.289Z,33152
2017-09-29T09:54:51.225Z,27456
2017-09-29T09:55:53.029Z,30464
2017-09-29T10:02:01.296Z,72960
2017-09-29T10:03:02.963Z,122624
2017-09-29T10:04:04.633Z,63968
2017-09-29T10:05:06.317Z,44128
2017-09-29T10:06:07.990Z,41920
2017-09-29T10:07:09.692Z,38624
2017-09-29T10:08:11.366Z,94432
2017-09-29T10:09:13.074Z,114464
2017-09-29T10:10:14.824Z,106848
2017-09-29T10:11:16.500Z,99072
2017-09-29T10:12:18.164Z,89248
2017-09-29T10:13:19.835Z,79360
2017-09-29T10:14:21.511Z,69312
2017-09-29T10:15:23.187Z,42368
2017-09-29T10:16:24.875Z,58624
2017-09-29T10:17:26.544Z,48192
2017-09-29T10:18:28.262Z,35488
2017-09-29T10:19:29.929Z,35936
2017-09-29T10:20:31.600Z,63072
2017-09-29T10:21:33.276Z,59616
2017-09-29T10:22:34.954Z,54336
2017-09-29T10:23:36.627Z,43712
2017-09-29T10:24:38.340Z,38816
2017-09-29T10:25:40.010Z,31232
2017-09-29T10:26:41.679Z,27808
2017-09-29T10:27:43.353Z,26912
2017-09-29T10:28:45.027Z,23648
2017-09-29T10:29:46.698Z,24480
2017-09-29T10:30:48.377Z,26912
2017-09-29T10:31:50.039Z,29600
2017-09-29T10:32:51.711Z,33216
2017-09-29T10:33:53.399Z,43584
2017-09-29T10:34:55.068Z,32160
2017-09-29T10:35:56.744Z,35296
2017-09-29T10:36:58.425Z,70368
2017-09-29T10:38:00.103Z,61664
2017-09-29T10:39:01.774Z,52992
2017-09-29T10:40:03.446Z,38816
2017-09-29T10:41:05.108Z,42432
2017-09-29T10:42:06.775Z,87424
2017-09-29T10:43:08.449Z,79904
2017-09-29T10:44:10.125Z,57888
2017-09-29T10:45:11.802Z,73664
2017-09-29T10:46:13.479Z,71552
2017-09-29T10:47:15.155Z,55840
2017-09-29T10:48:16.835Z,33728
2017-09-29T10:49:18.506Z,29216
2017-09-29T10:50:20.177Z,27648
2017-09-29T10:51:21.850Z,31232
2017-09-29T10:52:23.532Z,33504
2017-09-29T10:53:25.224Z,33376
2017-09-29T10:54:26.874Z,34208
2017-09-29T10:55:28.552Z,37024
2017-09-29T10:56:30.219Z,54816
2017-09-29T10:57:31.899Z,57920
2017-09-29T10:58:33.574Z,36416
2017-09-29T10:59:36.001Z,27648
2017-09-29T11:00:37.694Z,23328
2017-09-29T11:01:39.363Z,20320
2017-09-29T11:02:41.034Z,17536
2017-09-29T11:03:42.709Z,17888
2017-09-29T11:04:44.425Z,18176
2017-09-29T11:05:46.687Z,18976
2017-09-29T11:06:48.372Z,19232
2017-09-29T11:07:50.185Z,19328
2017-09-29T11:08:51.854Z,21024
2017-09-29T11:09:53.525Z,25408
2017-09-29T11:10:55.193Z,34976
2017-09-29T11:11:56.920Z,35200
2017-09-29T11:12:58.594Z,45216
2017-09-29T11:14:00.272Z,32992
2017-09-29T11:15:01.938Z,33408
2017-09-29T11:16:03.610Z,33120
2017-09-29T11:17:05.281Z,31392
2017-09-29T11:18:06.967Z,29408
2017-09-29T11:19:08.639Z,28928
2017-09-29T11:20:10.307Z,29024
2017-09-29T11:21:11.982Z,30144
2017-09-29T11:22:13.658Z,31808
2017-09-29T11:23:15.324Z,32320
2017-09-29T11:24:16.984Z,34752
2017-09-29T11:25:18.671Z,34688
2017-09-29T11:26:20.405Z,35648
2017-09-29T11:27:22.080Z,38400
2017-09-29T11:28:23.751Z,49888
2017-09-29T11:29:25.423Z,60864
2017-09-29T11:30:27.088Z,67744
2017-09-29T11:31:28.754Z,63456
2017-09-29T11:32:30.450Z,78560
2017-09-29T11:33:32.124Z,55072
2017-09-29T11:34:33.797Z,40736
2017-09-29T11:35:35.474Z,32288
2017-09-29T11:36:37.144Z,25728
2017-09-29T11:37:38.820Z,26720
2017-09-29T11:38:40.499Z,26848
2017-09-29T11:39:58.997Z,27136
2017-09-29T11:41:00.682Z,24992
2017-09-29T11:42:02.996Z,25280
2017-09-29T11:43:05.719Z,28448
2017-09-29T11:44:07.488Z,33824
2017-09-29T11:45:10.188Z,36064
2017-09-29T11:46:11.986Z,42528
2017-09-29T11:47:14.716Z,41792
2017-09-29T11:48:17.300Z,45920
2017-09-29T11:49:22.206Z,46240
2017-09-29T11:50:24.780Z,56032
2017-09-29T11:51:26.517Z,51040
2017-09-29T11:52:28.300Z,54816
2017-09-29T11:53:30.929Z,83968
2017-09-29T11:54:32.692Z,42528
2017-09-29T11:55:36.005Z,98752
2017-09-29T11:56:38.589Z,80160
2017-09-29T11:57:40.440Z,79392
2017-09-29T11:58:43.218Z,67584
2017-09-29T11:59:44.979Z,109216
2017-09-29T12:00:46.815Z,46976
2017-09-29T12:01:48.996Z,113792
2017-09-29T12:02:51.458Z,45248
2017-09-29T12:03:53.809Z,28800
2017-09-29T12:04:55.675Z,27840
2017-09-29T12:05:58.034Z,37984
2017-09-29T12:06:59.819Z,43584
2017-09-29T12:08:02.410Z,39840
2017-09-29T12:09:04.161Z,35936
2017-09-29T12:10:06.514Z,32032
2017-09-29T12:11:08.311Z,32704
2017-09-29T12:12:10.838Z,32416
2017-09-29T12:13:12.668Z,34496
2017-09-29T12:14:15.822Z,32192
2017-09-29T12:15:17.827Z,29888
2017-09-29T12:16:20.016Z,30144
2017-09-29T12:17:21.753Z,33664
2017-09-29T12:18:23.572Z,32960
2017-09-29T12:19:25.316Z,49248
2017-09-29T12:20:27.119Z,32832
2017-09-29T12:21:30.114Z,41408
2017-09-29T12:22:31.876Z,53152
2017-09-29T12:23:34.158Z,36864
2017-09-29T12:24:35.923Z,60704
2017-09-29T12:25:38.628Z,91552
2017-09-29T12:26:40.546Z,42016
2017-09-29T12:27:42.294Z,35808
2017-09-29T12:28:45.418Z,30208
2017-09-29T12:29:47.443Z,26624
2017-09-29T12:30:49.366Z,24832
2017-09-29T12:31:51.582Z,26304
2017-09-29T12:32:54.074Z,32608
2017-09-29T12:33:55.717Z,30560
2017-09-29T12:34:57.994Z,46752
2017-09-29T12:35:59.830Z,29504
2017-09-29T12:37:02.528Z,29216
2017-09-29T12:38:04.242Z,29792
2017-09-29T12:39:06.925Z,28704
2017-09-29T12:40:08.790Z,24832
2017-09-29T12:41:11.289Z,21024
2017-09-29T12:42:13.037Z,16820
2017-09-29T12:43:15.657Z,14580
2017-09-29T12:44:17.447Z,13600
2017-09-29T12:45:19.827Z,14636
2017-09-29T12:46:21.610Z,17728
2017-09-29T12:47:24.125Z,20192
2017-09-29T12:48:25.917Z,20608
2017-09-29T12:49:28.330Z,19584
2017-09-29T12:50:30.045Z,18592
2017-09-29T12:51:32.394Z,18752
2017-09-29T12:52:34.210Z,18080
2017-09-29T12:53:36.456Z,18560
2017-09-29T12:54:38.889Z,18528
2017-09-29T12:55:41.806Z,20320
2017-09-29T12:56:45.518Z,21920
2017-09-29T12:57:47.327Z,23008
2017-09-29T12:58:49.215Z,23104
2017-09-29T12:59:50.993Z,23680
2017-09-29T13:00:52.761Z,23968
2017-09-29T13:01:54.570Z,21312
2017-09-29T13:03:00.807Z,19648
2017-09-29T13:04:03.206Z,18272
2017-09-29T13:05:04.985Z,16644
2017-09-29T13:06:07.580Z,17000
2017-09-29T13:07:09.413Z,19392
2017-09-29T13:08:12.231Z,19136
2017-09-29T13:09:14.777Z,17744
2017-09-29T13:10:16.321Z,16992
2017-09-29T13:11:19.339Z,15588
2017-09-29T13:12:21.662Z,15616
2017-09-29T13:13:23.193Z,16096
2017-09-29T13:14:24.993Z,14600
2017-09-29T13:15:26.723Z,14268
2017-09-29T13:16:28.469Z,16776
2017-09-29T13:17:30.291Z,19104
2017-09-29T13:18:32.064Z,21984
2017-09-29T13:19:34.294Z,21888
2017-09-29T13:20:36.022Z,19264
2017-09-29T13:21:38.613Z,17888
2017-09-29T13:22:40.398Z,18176
2017-09-29T13:23:42.557Z,23264
2017-09-29T13:24:44.276Z,30240
2017-09-29T13:25:46.375Z,33728
2017-09-29T13:26:48.102Z,27744
2017-09-29T13:27:50.716Z,24480
2017-09-29T13:28:52.430Z,22464
2017-09-29T13:29:54.781Z,21824
2017-09-29T13:30:56.604Z,17140
2017-09-29T13:31:59.091Z,17708
2017-09-29T13:33:00.877Z,16760
2017-09-29T13:34:02.640Z,14980
2017-09-29T13:35:04.408Z,14012
2017-09-29T13:36:06.288Z,12564
2017-09-29T13:37:08.137Z,11292
2017-09-29T13:38:09.961Z,9804
2017-09-29T13:39:11.756Z,8980
2017-09-29T13:40:13.532Z,8692
2017-09-29T13:41:15.382Z,9012
2017-09-29T13:42:17.274Z,9984
2017-09-29T13:43:19.111Z,10476
2017-09-29T13:44:20.919Z,10776
2017-09-29T13:45:22.683Z,11848
2017-09-29T13:46:24.533Z,12912
2017-09-29T13:47:26.369Z,14208
2017-09-29T13:48:29.018Z,15768
2017-09-29T13:49:30.837Z,17352
2017-09-29T13:50:32.559Z,16292
2017-09-29T13:51:34.304Z,14632
2017-09-29T13:52:36.057Z,13476
2017-09-29T13:53:38.929Z,13276
2017-09-29T13:54:40.688Z,12624
2017-09-29T13:55:42.550Z,11776
2017-09-29T14:01:36.047Z,27264
2017-09-29T14:02:37.721Z,26688
2017-09-29T14:03:39.387Z,25920
2017-09-29T14:04:41.050Z,23328
2017-09-29T14:05:42.720Z,23424
2017-09-29T14:06:44.388Z,23968
2017-09-29T14:07:46.064Z,22304
2017-09-29T14:08:47.759Z,21696
2017-09-29T14:09:49.451Z,18720
2017-09-29T14:10:51.118Z,17072
2017-09-29T14:11:53.811Z,16128
2017-09-29T14:12:55.499Z,15636
2017-09-29T14:13:57.163Z,14568
2017-09-29T14:14:58.833Z,13612
2017-09-29T14:16:00.511Z,13892
2017-09-29T14:17:02.213Z,14464
2017-09-29T14:18:04.026Z,14276
2017-09-29T14:19:05.695Z,13176
2017-09-29T14:20:07.369Z,12668
2017-09-29T14:21:09.124Z,12228
2017-09-29T14:22:10.802Z,12372
2017-09-29T14:23:12.508Z,13648